createdAt,value
2019-03-05T00:01:09.614Z,6.90
2019-03-05T00:03:58.605Z,6.90
2019-03-05T00:06:48.029Z,6.90
2019-03-05T00:09:37.182Z,6.90
2019-03-05T00:12:26.576Z,6.90
2019-03-05T00:15:18.888Z,6.90
2019-03-05T00:18:07.696Z,6.90
2019-03-05T00:20:56.657Z,6.90
2019-03-05T00:23:59.443Z,6.90
2019-03-05T00:26:48.131Z,7.00
2019-03-05T00:29:57.018Z,7.00
2019-03-05T00:32:56.427Z,7.00
2019-03-05T00:36:22.545Z,7.00
2019-03-05T00:39:28.531Z,7.00
2019-03-05T00:43:00.030Z,7.00
2019-03-05T00:46:02.574Z,7.00
2019-03-05T00:49:05.557Z,7.10
2019-03-05T00:51:59.611Z,7.10
2019-03-05T00:55:12.975Z,7.10
2019-03-05T00:58:13.035Z,7.10
2019-03-05T01:01:06.405Z,7.20
2019-03-05T01:04:21.202Z,7.20
2019-03-05T01:07:10.097Z,7.20
2019-03-05T01:09:59.402Z,7.20
2019-03-05T01:12:49.032Z,7.20
2019-03-05T01:15:38.549Z,7.20
2019-03-05T01:18:28.093Z,7.20
2019-03-05T01:21:16.927Z,7.20
2019-03-05T01:24:07.297Z,7.20
2019-03-05T01:26:56.823Z,7.20
2019-03-05T01:29:45.806Z,7.20
2019-03-05T01:32:39.499Z,7.20
2019-03-05T01:35:32.392Z,7.20
2019-03-05T01:38:21.577Z,7.20
2019-03-05T01:41:11.491Z,7.20
2019-03-05T01:44:00.830Z,7.20
2019-03-05T01:46:49.841Z,7.20
2019-03-05T01:49:39.068Z,7.20
2019-03-05T01:52:28.130Z,7.20
2019-03-05T01:55:17.740Z,7.20
2019-03-05T01:58:07.276Z,7.10
2019-03-05T02:00:55.964Z,7.10
2019-03-05T02:03:45.412Z,7.00
2019-03-05T02:06:34.470Z,6.80
2019-03-05T02:09:23.946Z,6.60
2019-03-05T02:12:13.215Z,6.50
2019-03-05T02:15:03.100Z,6.30
2019-03-05T02:17:52.330Z,6.30
2019-03-05T02:20:41.638Z,6.20
2019-03-05T02:23:49.801Z,6.10
2019-03-05T02:27:20.695Z,6.10
2019-03-05T02:30:29.430Z,6.00
2019-03-05T02:33:44.924Z,5.90
2019-03-05T02:37:12.794Z,5.90
2019-03-05T02:40:27.126Z,5.80
2019-03-05T02:43:32.379Z,5.80
2019-03-05T02:46:28.925Z,5.70
2019-03-05T02:49:31.264Z,5.70
2019-03-05T02:52:37.268Z,5.80
2019-03-05T02:55:39.874Z,5.90
2019-03-05T02:58:26.958Z,5.90
2019-03-05T03:01:26.201Z,5.90
2019-03-05T03:04:22.502Z,6.00
2019-03-05T03:07:11.977Z,6.00
2019-03-05T03:10:22.966Z,6.00
2019-03-05T03:13:12.223Z,6.00
2019-03-05T03:16:01.042Z,6.00
2019-03-05T03:18:50.455Z,5.90
2019-03-05T03:21:39.772Z,5.90
2019-03-05T03:24:28.890Z,5.90
2019-03-05T03:27:17.996Z,5.90
2019-03-05T03:30:14.937Z,5.90
2019-03-05T03:33:03.537Z,5.80
2019-03-05T03:35:52.558Z,5.80
2019-03-05T03:38:42.030Z,5.80
2019-03-05T03:41:30.851Z,5.90
2019-03-05T03:44:20.237Z,5.80
2019-03-05T03:47:09.715Z,5.80
2019-03-05T03:49:59.090Z,5.70
2019-03-05T03:52:48.063Z,5.60
2019-03-05T03:55:37.955Z,5.60
2019-03-05T03:58:27.213Z,5.50
2019-03-05T04:01:16.849Z,5.40
2019-03-05T04:04:05.656Z,5.30
2019-03-05T04:06:54.889Z,5.30
2019-03-05T04:09:43.743Z,5.20
2019-03-05T04:12:33.290Z,5.20
2019-03-05T04:15:22.378Z,5.20
2019-03-05T04:18:12.381Z,5.40
2019-03-05T04:21:02.880Z,5.50
2019-03-05T04:23:52.126Z,5.50
2019-03-05T04:26:41.016Z,5.60
2019-03-05T04:29:30.309Z,5.70
2019-03-05T04:32:19.855Z,5.70
2019-03-05T04:35:13.332Z,5.80
2019-03-05T04:38:02.590Z,5.70
2019-03-05T04:40:51.975Z,5.80
2019-03-05T04:43:41.434Z,5.70
2019-03-05T04:46:29.926Z,5.60
2019-03-05T04:49:18.947Z,5.60
2019-03-05T04:52:15.353Z,5.50
2019-03-05T04:55:05.892Z,5.50
2019-03-05T04:57:54.988Z,5.50
2019-03-05T05:00:44.533Z,5.50
2019-03-05T05:03:33.072Z,5.50
2019-03-05T05:06:22.860Z,5.50
2019-03-05T05:09:12.746Z,5.40
2019-03-05T05:12:02.221Z,5.50
2019-03-05T05:14:52.171Z,5.60
2019-03-05T05:17:41.250Z,5.60
2019-03-05T05:20:30.436Z,5.70
2019-03-05T05:23:19.670Z,5.70
2019-03-05T05:26:09.283Z,5.70
2019-03-05T05:28:57.981Z,5.70
2019-03-05T05:31:47.410Z,5.70
2019-03-05T05:34:36.405Z,5.70
2019-03-05T05:37:25.747Z,5.70
2019-03-05T05:40:25.654Z,5.70
2019-03-05T05:43:28.340Z,5.70
2019-03-05T05:46:17.821Z,5.70
2019-03-05T05:49:06.950Z,5.70
2019-03-05T05:51:56.465Z,5.80
2019-03-05T05:54:45.200Z,5.70
2019-03-05T05:57:35.937Z,5.70
2019-03-05T06:00:26.312Z,5.60
2019-03-05T06:03:15.584Z,5.70
2019-03-05T06:06:04.850Z,5.70
2019-03-05T06:08:54.231Z,5.70
2019-03-05T06:11:43.786Z,5.70
2019-03-05T06:14:32.973Z,5.70
2019-03-05T06:17:22.379Z,5.70
2019-03-05T06:20:16.827Z,5.80
2019-03-05T06:23:05.870Z,5.70
2019-03-05T06:25:54.962Z,5.70
2019-03-05T06:28:43.808Z,5.60
2019-03-05T06:31:32.986Z,5.50
2019-03-05T06:34:21.798Z,5.50
2019-03-05T06:37:11.009Z,5.50
2019-03-05T06:39:59.628Z,5.70
2019-03-05T06:42:48.835Z,5.90
2019-03-05T06:45:37.763Z,6.00
2019-03-05T06:48:27.273Z,5.90
2019-03-05T06:51:16.099Z,6.00
2019-03-05T06:54:05.512Z,6.00
2019-03-05T06:56:54.638Z,6.00
2019-03-05T06:59:43.634Z,5.90
2019-03-05T07:02:32.503Z,6.00
2019-03-05T07:06:16.795Z,6.10
2019-03-05T07:09:30.111Z,6.20
2019-03-05T07:12:32.361Z,6.30
2019-03-05T07:15:42.826Z,6.30
2019-03-05T07:18:37.242Z,6.30
2019-03-05T07:21:52.090Z,6.30
2019-03-05T07:24:49.693Z,6.40
2019-03-05T07:27:39.024Z,6.50
2019-03-05T07:30:28.500Z,6.50
2019-03-05T07:33:18.092Z,6.60
2019-03-05T07:36:07.647Z,6.60
2019-03-05T07:38:57.126Z,6.70
2019-03-05T07:41:48.131Z,6.70
2019-03-05T07:44:35.977Z,6.80
2019-03-05T07:47:25.141Z,7.00
2019-03-05T07:50:13.844Z,7.00
2019-03-05T07:53:03.087Z,7.20
2019-03-05T07:55:50.782Z,7.20
2019-03-05T07:58:39.458Z,7.10
2019-03-05T08:01:27.866Z,7.10
2019-03-05T08:04:18.759Z,7.10
2019-03-05T08:07:05.686Z,7.00
2019-03-05T08:09:55.547Z,6.90
2019-03-05T08:13:15.939Z,7.00
2019-03-05T08:16:07.009Z,7.00
2019-03-05T08:18:54.971Z,6.90
2019-03-05T08:21:43.190Z,6.90
2019-03-05T08:24:31.350Z,6.90
2019-03-05T08:27:19.829Z,7.00
2019-03-05T08:30:18.183Z,7.10
2019-03-05T08:33:06.366Z,7.20
2019-03-05T08:35:54.885Z,7.60
2019-03-05T08:38:43.623Z,7.80
2019-03-05T08:41:32.672Z,8.00
2019-03-05T08:44:22.077Z,7.90
2019-03-05T08:47:11.241Z,7.80
2019-03-05T08:50:00.633Z,7.70
2019-03-05T08:52:49.606Z,7.70
2019-03-05T08:55:39.047Z,7.70
2019-03-05T08:58:28.057Z,7.70
2019-03-05T09:01:17.370Z,7.70
2019-03-05T09:04:06.568Z,7.70
2019-03-05T09:06:56.088Z,7.70
2019-03-05T09:09:45.470Z,7.70
2019-03-05T09:12:34.460Z,7.70
2019-03-05T09:15:23.341Z,7.60
2019-03-05T09:18:12.891Z,7.60
2019-03-05T09:21:02.448Z,7.70
2019-03-05T09:23:51.644Z,7.60
2019-03-05T09:26:50.747Z,7.60
2019-03-05T09:29:31.423Z,7.70
2019-03-05T09:32:20.665Z,7.90
2019-03-05T09:35:14.166Z,7.80
2019-03-05T09:38:03.481Z,7.80
2019-03-05T09:40:52.508Z,7.70
2019-03-05T09:43:42.265Z,7.60
2019-03-05T09:46:31.374Z,7.50
2019-03-05T09:49:19.966Z,7.40
2019-03-05T09:52:09.253Z,7.30
2019-03-05T09:54:58.610Z,7.20
2019-03-05T09:57:49.643Z,7.10
2019-03-05T10:00:39.606Z,7.10
2019-03-05T10:03:29.135Z,6.90
2019-03-05T10:06:17.605Z,6.80
2019-03-05T10:09:06.596Z,6.70
2019-03-05T10:11:56.821Z,6.60
2019-03-05T10:14:44.955Z,6.50
2019-03-05T10:17:37.892Z,6.60
2019-03-05T10:20:34.139Z,6.70
2019-03-05T10:23:22.624Z,6.70
2019-03-05T10:26:10.841Z,6.60
2019-03-05T10:28:59.097Z,6.60
2019-03-05T10:31:47.315Z,6.70
2019-03-05T10:34:35.500Z,6.70
2019-03-05T10:37:24.108Z,7.00
2019-03-05T10:40:15.063Z,7.20
2019-03-05T10:43:08.751Z,7.00
2019-03-05T10:45:56.335Z,6.90
2019-03-05T10:48:44.663Z,6.80
2019-03-05T10:51:32.901Z,6.60
2019-03-05T10:54:21.058Z,6.70
2019-03-05T10:57:09.467Z,6.70
2019-03-05T10:59:57.237Z,7.00
2019-03-05T11:02:46.460Z,7.10
2019-03-05T11:05:37.249Z,7.10
2019-03-05T11:08:26.999Z,6.80
2019-03-05T11:11:15.087Z,6.80
2019-03-05T11:14:03.585Z,6.60
2019-03-05T11:16:51.548Z,6.60
2019-03-05T11:19:40.065Z,6.60
2019-03-05T11:22:29.347Z,6.50
2019-03-05T11:25:18.831Z,6.50
2019-03-05T11:28:06.576Z,6.80
2019-03-05T11:30:54.803Z,6.80
2019-03-05T11:33:42.722Z,6.80
2019-03-05T11:36:31.600Z,6.90
2019-03-05T11:39:19.535Z,6.90
2019-03-05T11:42:07.473Z,7.00
2019-03-05T11:45:06.894Z,6.80
2019-03-05T11:47:46.115Z,6.80
2019-03-05T11:50:34.769Z,6.90
2019-03-05T11:53:22.796Z,6.90
2019-03-05T11:56:11.132Z,7.10
2019-03-05T11:58:58.868Z,7.20
2019-03-05T12:01:47.244Z,7.30
2019-03-05T12:04:35.165Z,7.10
2019-03-05T12:07:22.907Z,7.10
2019-03-05T12:10:23.447Z,7.20
2019-03-05T12:13:14.345Z,7.20
2019-03-05T12:16:01.424Z,7.30
2019-03-05T12:18:49.922Z,7.20
2019-03-05T12:21:38.263Z,7.30
2019-03-05T12:24:26.716Z,7.30
2019-03-05T12:27:14.967Z,7.40
2019-03-05T12:30:02.703Z,7.20
2019-03-05T12:32:51.253Z,7.30
2019-03-05T12:35:39.312Z,7.20
2019-03-05T12:38:27.745Z,7.10
2019-03-05T12:41:15.893Z,7.20
2019-03-05T12:44:05.420Z,7.20
2019-03-05T12:46:53.725Z,7.30
2019-03-05T12:49:42.175Z,7.40
2019-03-05T12:52:29.869Z,7.40
2019-03-05T12:55:18.748Z,7.50
2019-03-05T12:58:07.478Z,7.50
2019-03-05T13:00:55.977Z,7.50
2019-03-05T13:03:44.309Z,7.50
2019-03-05T13:06:32.600Z,7.50
2019-03-05T13:09:20.820Z,7.50
2019-03-05T13:12:09.044Z,7.50
2019-03-05T13:14:57.030Z,7.60
2019-03-05T13:17:47.076Z,7.70
2019-03-05T13:20:35.286Z,7.80
2019-03-05T13:23:23.744Z,7.90
2019-03-05T13:26:12.315Z,7.80
2019-03-05T13:29:00.673Z,7.80
2019-03-05T13:31:48.755Z,7.80
2019-03-05T13:34:36.765Z,7.70
2019-03-05T13:37:28.450Z,7.70
2019-03-05T13:40:30.015Z,7.60
2019-03-05T13:43:16.940Z,7.60
2019-03-05T13:46:06.446Z,7.80
2019-03-05T13:49:17.994Z,7.90
2019-03-05T13:52:15.985Z,7.80
2019-03-05T13:55:23.522Z,7.70
2019-03-05T13:58:20.705Z,7.70
2019-03-05T14:01:08.957Z,7.50
2019-03-05T14:04:08.899Z,7.40
2019-03-05T14:07:30.322Z,7.20
2019-03-05T14:10:19.602Z,7.30
2019-03-05T14:13:08.851Z,7.20
2019-03-05T14:15:57.853Z,7.10
2019-03-05T14:18:45.662Z,7.00
2019-03-05T14:21:34.732Z,7.10
2019-03-05T14:24:24.505Z,7.20
2019-03-05T14:27:12.438Z,7.30
2019-03-05T14:30:02.799Z,7.40
2019-03-05T14:32:50.259Z,7.60
2019-03-05T14:35:38.528Z,8.10
2019-03-05T14:38:27.271Z,8.20
2019-03-05T14:41:16.449Z,8.30
2019-03-05T14:44:05.489Z,8.50
2019-03-05T14:46:56.918Z,8.30
2019-03-05T14:49:45.790Z,8.20
2019-03-05T14:52:34.579Z,8.20
2019-03-05T14:55:24.161Z,8.10
2019-03-05T14:58:13.890Z,8.10
2019-03-05T15:01:03.212Z,8.10
2019-03-05T15:03:52.218Z,8.20
2019-03-05T15:06:41.965Z,8.30
2019-03-05T15:09:30.684Z,8.30
2019-03-05T15:12:19.933Z,8.20
2019-03-05T15:15:13.242Z,8.20
2019-03-05T15:18:02.874Z,8.30
2019-03-05T15:20:51.723Z,8.40
2019-03-05T15:23:40.248Z,8.50
2019-03-05T15:26:28.997Z,8.40
2019-03-05T15:29:18.029Z,8.30
2019-03-05T15:32:07.836Z,8.00
2019-03-05T15:34:57.267Z,7.80
2019-03-05T15:37:46.390Z,7.80
2019-03-05T15:40:35.147Z,7.70
2019-03-05T15:43:24.090Z,7.70
2019-03-05T15:46:13.398Z,7.60
2019-03-05T15:49:02.918Z,7.60
2019-03-05T15:51:51.975Z,7.60
2019-03-05T15:54:41.331Z,7.70
2019-03-05T15:57:30.298Z,7.70
2019-03-05T16:00:32.667Z,7.80
2019-03-05T16:03:22.099Z,7.80
2019-03-05T16:06:13.887Z,7.90
2019-03-05T16:09:03.202Z,7.80
2019-03-05T16:11:52.909Z,7.80
2019-03-05T16:14:41.761Z,7.80
2019-03-05T16:17:31.252Z,7.70
2019-03-05T16:20:21.280Z,7.70
2019-03-05T16:23:10.575Z,7.60
2019-03-05T16:26:01.426Z,7.60
2019-03-05T16:28:50.171Z,7.50
2019-03-05T16:31:45.410Z,7.50
2019-03-05T16:34:45.912Z,7.40
2019-03-05T16:37:42.634Z,7.30
2019-03-05T16:40:50.556Z,7.30
2019-03-05T16:43:40.607Z,7.20
2019-03-05T16:46:29.777Z,7.20
2019-03-05T16:49:36.670Z,7.10
2019-03-05T16:52:40.019Z,7.10
2019-03-05T16:55:46.878Z,7.00
2019-03-05T16:58:37.908Z,6.90
2019-03-05T17:01:34.334Z,6.90
2019-03-05T17:04:37.048Z,6.90
2019-03-05T17:07:28.761Z,6.80
2019-03-05T17:10:36.263Z,6.80
2019-03-05T17:13:24.969Z,6.70
2019-03-05T17:16:14.160Z,6.60
2019-03-05T17:19:02.958Z,6.50
2019-03-05T17:21:53.096Z,6.40
2019-03-05T17:24:42.604Z,6.30
2019-03-05T17:27:32.166Z,6.30
2019-03-05T17:30:21.389Z,6.10
2019-03-05T17:33:10.490Z,6.10
2019-03-05T17:35:59.059Z,6.10
2019-03-05T17:38:48.635Z,6.00
2019-03-05T17:41:37.998Z,6.00
2019-03-05T17:44:28.549Z,5.90
2019-03-05T17:47:17.556Z,5.90
2019-03-05T17:50:11.165Z,5.90
2019-03-05T17:52:59.987Z,5.90
2019-03-05T17:55:49.728Z,5.80
2019-03-05T17:58:39.018Z,5.80
2019-03-05T18:01:28.610Z,5.70
2019-03-05T18:04:17.912Z,5.70
2019-03-05T18:07:07.355Z,5.60
2019-03-05T18:09:56.747Z,5.60
2019-03-05T18:12:46.303Z,5.50
2019-03-05T18:15:34.853Z,5.40
2019-03-05T18:18:24.023Z,5.50
2019-03-05T18:21:12.780Z,5.40
2019-03-05T18:24:02.440Z,5.40
2019-03-05T18:26:52.243Z,5.20
2019-03-05T18:29:41.209Z,5.10
2019-03-05T18:32:30.708Z,5.00
2019-03-05T18:35:20.227Z,4.90
2019-03-05T18:38:09.530Z,4.90
2019-03-05T18:40:58.904Z,4.80
2019-03-05T18:43:47.960Z,4.80
2019-03-05T18:46:36.852Z,4.70
2019-03-05T18:49:26.187Z,4.70
2019-03-05T18:52:15.562Z,4.70
2019-03-05T18:55:07.068Z,4.70
2019-03-05T18:57:56.151Z,4.70
2019-03-05T19:00:45.265Z,4.60
2019-03-05T19:03:34.691Z,4.60
2019-03-05T19:06:24.306Z,4.50
2019-03-05T19:09:13.737Z,4.50
2019-03-05T19:12:02.464Z,4.50
2019-03-05T19:14:51.353Z,4.50
2019-03-05T19:17:40.825Z,4.50
2019-03-05T19:20:33.558Z,4.60
2019-03-05T19:23:22.721Z,4.60
2019-03-05T19:26:12.355Z,4.60
2019-03-05T19:29:01.490Z,4.70
2019-03-05T19:31:50.603Z,4.60
2019-03-05T19:34:40.130Z,4.60
2019-03-05T19:37:29.283Z,4.60
2019-03-05T19:40:26.246Z,4.60
2019-03-05T19:43:15.207Z,4.50
2019-03-05T19:46:04.257Z,4.50
2019-03-05T19:48:54.139Z,4.40
2019-03-05T19:51:43.485Z,4.50
2019-03-05T19:54:33.539Z,4.50
2019-03-05T19:57:22.342Z,4.50
2019-03-05T20:00:26.605Z,4.40
2019-03-05T20:03:15.852Z,4.40
2019-03-05T20:06:05.415Z,4.40
2019-03-05T20:08:54.815Z,4.30
2019-03-05T20:11:44.068Z,4.30
2019-03-05T20:14:33.453Z,4.30
2019-03-05T20:17:22.438Z,4.20
2019-03-05T20:20:15.275Z,4.30
2019-03-05T20:23:04.352Z,4.30
2019-03-05T20:25:53.618Z,4.30
2019-03-05T20:28:43.180Z,4.40
2019-03-05T20:31:31.911Z,4.40
2019-03-05T20:34:20.707Z,4.40
2019-03-05T20:37:09.182Z,4.40
2019-03-05T20:39:58.841Z,4.40
2019-03-05T20:42:47.759Z,4.30
2019-03-05T20:45:41.448Z,4.30
2019-03-05T20:48:31.143Z,4.20
2019-03-05T20:51:20.658Z,4.30
2019-03-05T20:54:09.984Z,4.40
2019-03-05T20:56:58.818Z,4.30
2019-03-05T20:59:49.338Z,4.30
2019-03-05T21:02:37.973Z,4.30
2019-03-05T21:05:30.989Z,4.20
2019-03-05T21:08:20.256Z,4.20
2019-03-05T21:11:09.392Z,4.10
2019-03-05T21:13:58.605Z,4.00
2019-03-05T21:16:47.645Z,4.10
2019-03-05T21:19:36.591Z,4.00
2019-03-05T21:22:25.679Z,3.90
2019-03-05T21:25:21.881Z,3.90
2019-03-05T21:28:10.357Z,3.90
2019-03-05T21:30:59.701Z,3.90
2019-03-05T21:33:49.001Z,3.90
2019-03-05T21:36:37.978Z,3.90
2019-03-05T21:39:27.309Z,3.80
2019-03-05T21:42:16.630Z,3.90
2019-03-05T21:45:10.551Z,3.90
2019-03-05T21:48:00.236Z,3.80
2019-03-05T21:50:49.813Z,3.80
2019-03-05T21:53:38.988Z,3.80
2019-03-05T21:56:28.244Z,3.80
2019-03-05T21:59:17.093Z,3.80
2019-03-05T22:02:06.055Z,3.80
2019-03-05T22:04:55.136Z,3.80
2019-03-05T22:07:44.254Z,3.80
2019-03-05T22:10:33.164Z,3.70
2019-03-05T22:13:22.737Z,3.80
2019-03-05T22:16:11.959Z,3.80
2019-03-05T22:19:01.171Z,3.80
2019-03-05T22:21:50.238Z,3.70
2019-03-05T22:24:38.996Z,3.80
2019-03-05T22:27:28.243Z,3.80
2019-03-05T22:30:24.291Z,3.80
2019-03-05T22:33:13.811Z,3.80
2019-03-05T22:36:03.350Z,3.90
2019-03-05T22:38:52.821Z,3.90
2019-03-05T22:41:41.788Z,3.80
2019-03-05T22:44:31.196Z,3.70
2019-03-05T22:47:20.463Z,3.70
2019-03-05T22:50:13.821Z,3.60
2019-03-05T22:53:03.045Z,3.50
2019-03-05T22:55:52.325Z,3.50
2019-03-05T22:58:41.970Z,3.60
2019-03-05T23:01:37.185Z,3.60
2019-03-05T23:04:29.798Z,3.60
2019-03-05T23:07:19.443Z,3.60
2019-03-05T23:10:17.284Z,3.70
2019-03-05T23:13:06.361Z,3.70
2019-03-05T23:15:55.339Z,3.60
2019-03-05T23:18:44.438Z,3.60
2019-03-05T23:21:33.988Z,3.50
2019-03-05T23:24:23.570Z,3.50
2019-03-05T23:27:12.623Z,3.50
2019-03-05T23:30:02.081Z,3.40
2019-03-05T23:32:55.465Z,3.50
2019-03-05T23:35:44.912Z,3.40
2019-03-05T23:38:33.739Z,3.40
2019-03-05T23:41:24.370Z,3.40
2019-03-05T23:44:13.150Z,3.40
2019-03-05T23:47:02.521Z,3.40
2019-03-05T23:49:51.579Z,3.40
2019-03-05T23:52:42.364Z,3.40
2019-03-05T23:55:30.861Z,3.30
2019-03-05T23:58:20.111Z,3.40
